Time;durP1;ratioP1;P1;durP2;ratioP2;P2;SDS_P1;SDS_P2;PMS_P1;PMS_P2;Temp;Humidity;BMP_temperature;BMP_pressure;BME280_temperature;BME280_humidity;BME280_pressure;Samples;Min_cycle;Max_cycle;Signal;HPM_P1;HPM_P2
2023/01/12 00:01:23;;;;;;;3.47;3.08;;;9.30;99.90;;;;;;5054983;28;20418;-69
2023/01/12 00:03:49;;;;;;;3.53;3.00;;;9.30;99.90;;;;;;5054546;28;20039;-69
2023/01/12 00:06:15;;;;;;;4.57;3.00;;;9.30;99.90;;;;;;5054723;28;20115;-68
2023/01/12 00:08:41;;;;;;;3.97;3.00;;;9.30;99.90;;;;;;5054569;28;20489;-69
2023/01/12 00:11:07;;;;;;;3.97;2.97;;;9.30;99.90;;;;;;5054940;28;20032;-68
2023/01/12 00:13:33;;;;;;;5.43;3.13;;;9.30;99.90;;;;;;5054411;28;20432;-69
2023/01/12 00:18:45;;;;;;;4.78;3.05;;;9.30;99.90;;;;;;5054318;28;20036;-70
2023/01/12 00:21:11;;;;;;;3.88;2.90;;;9.30;99.90;;;;;;5054297;28;20552;-69
2023/01/12 00:23:41;;;;;;;3.45;2.83;;;9.30;99.90;;;;;;5054305;28;20033;-69
2023/01/12 00:26:07;;;;;;;4.97;3.08;;;9.30;99.90;;;;;;5054415;28;20453;-68
2023/01/12 00:28:34;;;;;;;5.55;3.08;;;9.30;99.90;;;;;;5054077;28;20040;-70
2023/01/12 00:31:08;;;;;;;5.10;3.45;;;9.30;99.90;;;;;;5054463;28;20025;-70
2023/01/12 00:33:35;;;;;;;6.40;3.45;;;9.30;99.90;;;;;;5054161;28;20044;-68
2023/01/12 00:36:05;;;;;;;4.68;3.72;;;9.30;99.90;;;;;;5054302;28;20064;-69
2023/01/12 00:38:33;;;;;;;5.07;3.45;;;9.30;99.90;;;;;;5053755;28;20496;-69
2023/01/12 00:41:04;;;;;;;4.35;3.63;;;9.30;99.90;;;;;;5053892;28;20056;-69
2023/01/12 00:46:14;;;;;;;4.95;3.58;;;9.30;99.90;;;;;;5054243;28;20116;-69
2023/01/12 00:48:40;;;;;;;4.35;3.40;;;9.30;99.90;;;;;;5053821;28;20456;-69
2023/01/12 00:51:05;;;;;;;5.47;4.40;;;9.30;99.90;;;;;;5054017;28;20435;-69
2023/01/12 00:53:31;;;;;;;4.68;3.97;;;9.30;99.90;;;;;;5053034;28;20488;-69
2023/01/12 00:56:01;;;;;;;3.80;3.50;;;9.30;99.90;;;;;;5053952;28;20033;-68
2023/01/12 00:58:27;;;;;;;4.88;3.97;;;9.30;99.90;;;;;;5053470;28;20027;-69
2023/01/12 01:00:53;;;;;;;5.75;3.75;;;9.30;99.90;;;;;;5053549;28;20032;-69
2023/01/12 01:03:19;;;;;;;5.25;3.90;;;9.30;99.90;;;;;;5052549;28;20025;-69
2023/01/12 01:05:45;;;;;;;5.53;3.92;;;9.30;99.90;;;;;;5053456;28;20163;-68
2023/01/12 01:08:11;;;;;;;6.15;4.30;;;9.30;99.90;;;;;;5052750;28;20025;-68
2023/01/12 01:10:37;;;;;;;5.22;4.15;;;9.30;99.90;;;;;;5053407;28;20028;-69
2023/01/12 01:13:02;;;;;;;5.85;4.55;;;9.30;99.90;;;;;;5053674;28;20377;-69
2023/01/12 01:15:28;;;;;;;5.10;4.45;;;9.30;99.90;;;;;;5053512;28;20114;-69
2023/01/12 01:17:54;;;;;;;5.85;4.47;;;9.30;99.90;;;;;;5052838;28;20040;-69
2023/01/12 01:20:20;;;;;;;5.20;4.68;;;9.30;99.90;;;;;;5053476;28;20437;-70
2023/01/12 01:22:46;;;;;;;5.43;4.70;;;9.30;99.90;;;;;;5052995;28;20127;-69
2023/01/12 01:25:12;;;;;;;6.03;4.93;;;9.30;99.90;;;;;;5052993;28;20093;-69
2023/01/12 01:27:38;;;;;;;6.93;5.32;;;9.30;99.90;;;;;;5052561;28;20036;-69
2023/01/12 01:30:04;;;;;;;8.15;5.35;;;9.30;99.90;;;;;;5053093;28;20029;-68
2023/01/12 01:32:29;;;;;;;6.55;5.30;;;9.30;99.90;;;;;;5053408;28;20025;-69
2023/01/12 01:34:55;;;;;;;5.80;5.25;;;9.30;99.90;;;;;;5054375;28;20385;-68
2023/01/12 01:37:21;;;;;;;7.30;5.97;;;9.30;99.90;;;;;;5053326;28;20079;-69
2023/01/12 01:39:47;;;;;;;6.88;5.43;;;9.30;99.90;;;;;;5052801;28;20049;-70
2023/01/12 01:42:26;;;;;;;8.40;6.15;;;9.30;99.90;;;;;;5053326;28;20029;-69
2023/01/12 01:44:54;;;;;;;7.95;5.40;;;9.30;99.90;;;;;;5052910;28;20440;-68
2023/01/12 01:47:32;;;;;;;8.40;5.30;;;9.30;99.90;;;;;;5052100;28;20037;-68
2023/01/12 01:50:00;;;;;;;7.80;6.03;;;9.30;99.90;;;;;;5053865;28;20021;-68
2023/01/12 01:52:33;;;;;;;6.85;5.30;;;9.20;99.90;;;;;;5053508;28;20035;-69
2023/01/12 01:55:06;;;;;;;6.05;5.43;;;9.30;99.90;;;;;;5052622;28;20033;-69
2023/01/12 01:57:41;;;;;;;7.05;5.07;;;9.30;99.90;;;;;;5052830;28;20482;-69
2023/01/12 02:00:11;;;;;;;8.13;4.47;;;9.30;99.90;;;;;;5052998;28;20079;-68
2023/01/12 02:02:38;;;;;;;9.70;5.20;;;9.30;99.90;;;;;;5052197;28;20086;-68
2023/01/12 02:05:04;;;;;;;6.32;4.85;;;9.30;99.90;;;;;;5052743;28;20434;-68
2023/01/12 02:07:30;;;;;;;5.88;4.63;;;9.30;99.90;;;;;;5053140;28;20041;-69
2023/01/12 02:09:56;;;;;;;5.72;4.43;;;9.20;99.90;;;;;;5051307;28;20029;-69
2023/01/12 02:18:44;;;;;;;4.97;3.88;;;9.20;99.90;;;;;;5052136;28;20044;-70
2023/01/12 02:21:40;;;;;;;4.93;3.85;;;9.20;99.90;;;;;;5030335;28;20151;-68
2023/01/12 02:24:06;;;;;;;5.35;3.78;;;9.20;99.90;;;;;;5030394;28;20048;-68
2023/01/12 02:27:07;;;;;;;4.75;3.47;;;9.20;99.90;;;;;;5030442;28;20041;-68
2023/01/12 02:29:51;;;;;;;3.90;3.20;;;9.20;99.90;;;;;;5030419;28;20065;-69
2023/01/12 02:32:41;;;;;;;4.50;3.13;;;9.20;99.90;;;;;;5030585;28;20100;-69
2023/01/12 02:35:07;;;;;;;5.22;3.28;;;9.20;99.90;;;;;;5030257;28;20039;-69
2023/01/12 02:37:51;;;;;;;6.40;3.13;;;9.20;99.90;;;;;;5030157;28;20494;-68
2023/01/12 02:40:29;;;;;;;5.00;3.42;;;9.10;99.90;;;;;;5030194;28;20053;-68
2023/01/12 02:43:03;;;;;;;4.57;2.90;;;9.10;99.90;;;;;;5029929;28;20068;-70
2023/01/12 02:45:41;;;;;;;4.47;3.00;;;9.10;99.90;;;;;;5030545;28;20043;-68
2023/01/12 02:48:44;;;;;;;5.82;3.05;;;9.10;99.90;;;;;;5030113;28;20021;-68
2023/01/12 02:51:34;;;;;;;4.50;2.95;;;9.10;99.90;;;;;;5033753;28;20542;-68
2023/01/12 02:54:04;;;;;;;3.78;2.97;;;9.10;99.90;;;;;;5056777;28;20029;-69
2023/01/12 02:56:36;;;;;;;3.95;2.60;;;9.10;99.90;;;;;;5057367;28;20033;-70
2023/01/12 02:59:10;;;;;;;5.57;3.08;;;9.10;99.90;;;;;;5052647;28;20025;-69
2023/01/12 03:01:36;;;;;;;4.95;2.67;;;9.10;99.90;;;;;;5052556;28;20084;-70
2023/01/12 03:04:06;;;;;;;3.90;2.80;;;9.00;99.90;;;;;;5052238;28;20056;-70
2023/01/12 03:07:04;;;;;;;3.22;2.60;;;9.10;99.90;;;;;;5052318;28;20033;-70
2023/01/12 03:09:38;;;;;;;5.20;2.80;;;9.00;99.90;;;;;;5029317;28;20044;-70
2023/01/12 03:12:09;;;;;;;5.72;2.90;;;9.00;99.90;;;;;;5051986;28;20028;-70
2023/01/12 03:14:39;;;;;;;4.18;2.92;;;9.00;99.90;;;;;;5052270;28;20025;-70
2023/01/12 03:17:11;;;;;;;5.10;2.72;;;9.00;99.90;;;;;;5051729;28;20033;-69
2023/01/12 03:19:38;;;;;;;4.13;2.72;;;9.00;99.90;;;;;;5052223;28;20048;-68
2023/01/12 03:22:09;;;;;;;4.22;2.60;;;9.00;99.90;;;;;;5053930;28;20031;-69
2023/01/12 03:24:44;;;;;;;3.05;2.35;;;9.00;99.90;;;;;;5054837;28;20060;-68
2023/01/12 03:27:19;;;;;;;4.32;2.50;;;9.00;99.90;;;;;;5055827;28;20033;-69
2023/01/12 03:29:55;;;;;;;4.80;2.92;;;9.00;99.90;;;;;;5055218;28;20031;-70
2023/01/12 03:32:22;;;;;;;3.63;2.72;;;8.90;99.90;;;;;;5055877;28;20033;-68
2023/01/12 03:34:48;;;;;;;5.88;2.50;;;8.90;99.90;;;;;;5055110;28;20036;-68
2023/01/12 03:37:20;;;;;;;5.15;2.75;;;8.90;99.90;;;;;;5055655;28;20033;-68
2023/01/12 03:40:22;;;;;;;6.13;2.70;;;9.00;99.90;;;;;;5054795;28;20056;-69
2023/01/12 03:43:14;;;;;;;3.90;2.50;;;8.90;99.90;;;;;;5032512;28;20508;-69
2023/01/12 03:45:59;;;;;;;6.18;2.65;;;9.00;99.90;;;;;;5055131;28;20029;-69
2023/01/12 03:48:28;;;;;;;6.63;2.55;;;8.90;99.90;;;;;;5055299;28;20067;-68
2023/01/12 03:50:59;;;;;;;5.20;2.70;;;8.90;99.90;;;;;;5054600;28;20049;-70
2023/01/12 03:53:25;;;;;;;3.65;2.30;;;8.90;99.90;;;;;;5055210;28;20025;-68
2023/01/12 03:55:55;;;;;;;4.68;2.42;;;9.00;99.90;;;;;;5054588;28;20033;-69
2023/01/12 03:58:22;;;;;;;5.93;2.97;;;8.90;99.90;;;;;;5054987;28;20108;-68
2023/01/12 04:00:48;;;;;;;4.60;2.85;;;9.00;99.90;;;;;;5054668;28;20031;-69
2023/01/12 04:03:15;;;;;;;5.10;3.40;;;8.90;99.90;;;;;;5053697;28;20037;-69
2023/01/12 04:05:42;;;;;;;4.93;2.92;;;8.90;99.90;;;;;;5054947;28;20029;-69
2023/01/12 04:08:10;;;;;;;5.05;3.30;;;8.90;99.90;;;;;;5053208;28;20021;-69
2023/01/12 04:10:35;;;;;;;6.20;3.10;;;9.00;99.90;;;;;;5054621;28;20381;-69
2023/01/12 04:13:01;;;;;;;9.25;3.00;;;8.90;99.90;;;;;;5054181;28;20033;-68
2023/01/12 04:15:27;;;;;;;4.90;2.90;;;8.90;99.90;;;;;;5054780;28;20060;-69
2023/01/12 04:17:52;;;;;;;7.50;2.97;;;8.90;99.90;;;;;;5054233;28;20474;-69
2023/01/12 04:20:19;;;;;;;4.20;2.63;;;8.90;99.90;;;;;;5054526;28;20048;-68
2023/01/12 04:22:45;;;;;;;9.65;2.95;;;8.90;99.90;;;;;;5054897;28;20342;-68
2023/01/12 04:25:10;;;;;;;4.55;2.47;;;8.80;99.90;;;;;;5054194;28;20029;-69
2023/01/12 04:27:41;;;;;;;6.95;2.90;;;8.80;99.90;;;;;;5054521;28;20039;-69
2023/01/12 04:30:07;;;;;;;7.38;2.63;;;8.80;99.90;;;;;;5053913;28;20370;-68
2023/01/12 04:32:33;;;;;;;5.72;2.60;;;8.80;99.90;;;;;;5053369;28;20063;-68
2023/01/12 04:34:58;;;;;;;8.05;2.80;;;8.80;99.90;;;;;;5054035;28;20083;-70
2023/01/12 04:37:24;;;;;;;3.97;2.22;;;8.80;99.90;;;;;;5054365;28;20038;-70
2023/01/12 04:39:50;;;;;;;6.57;2.08;;;8.80;99.90;;;;;;5053794;28;20045;-68
2023/01/12 04:44:59;;;;;;;5.90;2.40;;;8.80;99.90;;;;;;5053625;28;20036;-68
2023/01/12 04:47:25;;;;;;;3.35;2.20;;;8.70;99.90;;;;;;5053438;28;20025;-68
2023/01/12 04:49:51;;;;;;;8.07;2.55;;;8.70;99.90;;;;;;5053788;28;20454;-68
2023/01/12 04:52:16;;;;;;;5.38;2.38;;;8.70;99.90;;;;;;5053985;28;20071;-68
2023/01/12 04:54:42;;;;;;;6.95;2.50;;;8.70;99.90;;;;;;5054000;28;20029;-69
2023/01/12 04:57:07;;;;;;;4.65;2.30;;;8.70;99.90;;;;;;5053131;28;20469;-68
2023/01/12 04:59:33;;;;;;;8.57;1.98;;;8.70;99.90;;;;;;5053822;28;20112;-68
2023/01/12 05:01:59;;;;;;;6.13;2.08;;;8.70;99.90;;;;;;5053425;28;20057;-69
2023/01/12 05:04:25;;;;;;;4.90;2.20;;;8.70;99.90;;;;;;5052577;28;20052;-67
2023/01/12 05:06:50;;;;;;;4.90;2.20;;;8.70;99.90;;;;;;5053463;28;20104;-73
2023/01/12 05:12:00;;;;;;;5.13;1.98;;;8.70;99.90;;;;;;5053107;28;20031;-69
2023/01/12 05:14:26;;;;;;;6.03;2.10;;;8.60;99.90;;;;;;5053652;28;20417;-70
2023/01/12 05:16:52;;;;;;;5.32;2.40;;;8.60;99.90;;;;;;5053153;28;20398;-72
2023/01/12 05:19:17;;;;;;;7.97;1.70;;;8.60;99.90;;;;;;5052938;28;20029;-70
2023/01/12 05:21:43;;;;;;;5.30;2.17;;;8.60;99.90;;;;;;5053361;28;20021;-70
2023/01/12 05:24:08;;;;;;;8.07;2.42;;;8.60;99.90;;;;;;5053039;28;20036;-70
2023/01/12 05:26:34;;;;;;;4.35;1.67;;;8.60;99.90;;;;;;5053103;28;20032;-69
2023/01/12 05:29:00;;;;;;;7.53;2.20;;;8.60;99.90;;;;;;5052742;28;20048;-70
2023/01/12 05:31:25;;;;;;;4.40;2.10;;;8.60;99.90;;;;;;5053263;28;20040;-68
2023/01/12 05:33:51;;;;;;;5.25;2.10;;;8.50;99.90;;;;;;5053097;28;20102;-70
2023/01/12 05:36:17;;;;;;;5.97;2.10;;;8.50;99.90;;;;;;5052888;28;20100;-69
2023/01/12 05:38:43;;;;;;;5.93;1.90;;;8.50;99.90;;;;;;5053216;28;20454;-70
2023/01/12 05:41:10;;;;;;;10.43;2.30;;;8.40;99.90;;;;;;5053019;28;20470;-70
2023/01/12 05:43:51;;;;;;;9.00;2.33;;;8.50;99.90;;;;;;5053106;28;20041;-68
2023/01/12 05:46:23;;;;;;;5.40;2.00;;;8.40;99.90;;;;;;5052803;28;20036;-69
2023/01/12 05:48:50;;;;;;;5.95;1.98;;;8.40;99.90;;;;;;5053133;28;20039;-69
2023/01/12 05:51:17;;;;;;;3.63;1.80;;;8.40;99.90;;;;;;5052202;28;20474;-68
2023/01/12 05:53:43;;;;;;;6.40;2.10;;;8.30;99.90;;;;;;5052693;28;20466;-69
2023/01/12 05:56:15;;;;;;;4.28;1.80;;;8.30;99.90;;;;;;5052396;28;20056;-68
2023/01/12 05:58:41;;;;;;;5.43;2.10;;;8.30;99.90;;;;;;5052905;28;20141;-69
2023/01/12 06:01:10;;;;;;;5.18;2.00;;;8.30;99.90;;;;;;5052424;28;20025;-69
2023/01/12 06:03:36;;;;;;;5.85;1.88;;;8.30;99.90;;;;;;5052532;28;20115;-68
2023/01/12 06:06:03;;;;;;;10.63;2.33;;;8.30;99.90;;;;;;5052405;28;20064;-69
2023/01/12 06:08:28;;;;;;;9.77;1.95;;;8.20;99.90;;;;;;5052642;28;20108;-69
2023/01/12 06:10:58;;;;;;;5.72;1.85;;;8.20;99.90;;;;;;5051390;28;20128;-68
2023/01/12 06:16:08;;;;;;;4.70;2.00;;;8.20;99.90;;;;;;5052253;28;20040;-70
2023/01/12 06:18:38;;;;;;;7.22;2.10;;;8.20;99.90;;;;;;5052697;28;20029;-69
2023/01/12 06:21:07;;;;;;;6.28;2.20;;;8.10;99.90;;;;;;5050935;28;20025;-70
2023/01/12 06:23:33;;;;;;;7.68;2.00;;;8.10;99.90;;;;;;5052631;28;20027;-70
2023/01/12 06:26:03;;;;;;;4.82;1.90;;;8.10;99.90;;;;;;5052213;28;20075;-70
2023/01/12 06:28:29;;;;;;;6.70;2.35;;;8.10;99.90;;;;;;5052424;28;20017;-70
2023/01/12 06:31:00;;;;;;;7.47;2.28;;;8.10;99.90;;;;;;5050550;28;20037;-70
2023/01/12 06:33:26;;;;;;;4.75;2.25;;;8.00;99.90;;;;;;5052259;28;20385;-68
2023/01/12 06:35:53;;;;;;;5.47;2.35;;;8.00;99.90;;;;;;5054272;28;20029;-69
2023/01/12 06:38:19;;;;;;;6.13;2.65;;;8.00;99.90;;;;;;5053319;28;20104;-68
2023/01/12 06:40:45;;;;;;;7.93;2.33;;;8.00;99.90;;;;;;5052735;28;20117;-69
2023/01/12 06:43:11;;;;;;;8.43;2.90;;;7.90;99.90;;;;;;5052124;28;20035;-69
2023/01/12 06:45:37;;;;;;;8.05;2.25;;;7.90;99.90;;;;;;5052151;28;20144;-68
2023/01/12 06:48:04;;;;;;;6.35;2.38;;;7.90;99.90;;;;;;5051845;28;20057;-71
2023/01/12 06:50:31;;;;;;;8.38;2.30;;;7.90;99.90;;;;;;5051895;28;20029;-69
2023/01/12 06:53:01;;;;;;;11.23;2.15;;;7.80;99.90;;;;;;5052173;28;20036;-69
2023/01/12 06:55:27;;;;;;;4.38;2.13;;;7.80;99.90;;;;;;5052620;28;20032;-69
2023/01/12 06:57:53;;;;;;;10.20;2.67;;;7.80;99.90;;;;;;5056171;28;20028;-68
2023/01/12 07:00:19;;;;;;;6.90;2.80;;;7.80;99.90;;;;;;5055564;28;20377;-69
2023/01/12 07:02:48;;;;;;;7.90;2.28;;;7.80;99.90;;;;;;5056299;28;20047;-69
2023/01/12 07:05:14;;;;;;;5.28;2.30;;;7.80;99.90;;;;;;5055584;28;20087;-69
2023/01/12 07:07:40;;;;;;;5.25;2.55;;;7.80;99.90;;;;;;5056042;28;20037;-70
2023/01/12 07:10:06;;;;;;;4.60;2.20;;;7.80;99.90;;;;;;5055490;28;20075;-69
2023/01/12 07:12:31;;;;;;;9.15;2.53;;;7.80;99.90;;;;;;5055772;28;20056;-69
2023/01/12 07:14:58;;;;;;;8.95;2.92;;;7.70;99.90;;;;;;5052330;28;20458;-69
2023/01/12 07:17:24;;;;;;;8.38;2.42;;;7.80;99.90;;;;;;5054759;28;20033;-70
2023/01/12 07:19:50;;;;;;;5.25;2.38;;;7.80;99.90;;;;;;5055538;28;20055;-69
2023/01/12 07:22:15;;;;;;;5.68;2.50;;;7.80;99.90;;;;;;5054531;28;20104;-69
2023/01/12 07:24:41;;;;;;;4.53;2.63;;;7.70;99.90;;;;;;5055251;28;20413;-69
2023/01/12 07:27:06;;;;;;;9.52;2.67;;;7.70;99.90;;;;;;5055101;28;20079;-68
2023/01/12 07:29:32;;;;;;;7.60;2.70;;;7.70;99.90;;;;;;5054957;28;20033;-68
2023/01/12 07:31:58;;;;;;;10.63;2.50;;;7.80;99.90;;;;;;5055115;28;20056;-70
2023/01/12 07:34:23;;;;;;;3.15;1.83;;;7.70;99.90;;;;;;5054968;28;20022;-70
2023/01/12 07:36:50;;;;;;;8.57;2.97;;;7.80;99.90;;;;;;5055508;28;20037;-69
2023/01/12 07:39:16;;;;;;;5.93;2.45;;;7.70;99.90;;;;;;5054364;28;20025;-69
2023/01/12 07:44:26;;;;;;;8.27;2.30;;;7.80;99.90;;;;;;5054792;28;20540;-70
2023/01/12 07:46:52;;;;;;;9.77;2.60;;;7.80;99.90;;;;;;5054922;28;20033;-71
2023/01/12 07:49:18;;;;;;;4.60;2.60;;;7.80;99.90;;;;;;5054471;28;20023;-69
2023/01/12 07:51:44;;;;;;;6.07;2.30;;;7.80;99.90;;;;;;5054842;28;20028;-69
2023/01/12 07:54:09;;;;;;;5.57;1.95;;;7.80;99.90;;;;;;5054339;28;20025;-70
2023/01/12 07:56:35;;;;;;;6.00;2.30;;;7.90;99.90;;;;;;5053508;28;20040;-69
2023/01/12 07:59:01;;;;;;;4.35;1.65;;;7.90;99.90;;;;;;5053603;28;20029;-70
2023/01/12 08:01:26;;;;;;;5.93;1.77;;;7.90;99.90;;;;;;5054262;28;20021;-71
2023/01/12 08:03:52;;;;;;;5.57;3.03;;;8.00;99.90;;;;;;5054854;28;20449;-69
2023/01/12 08:06:18;;;;;;;5.22;1.70;;;8.00;99.90;;;;;;5054358;28;20064;-70
2023/01/12 08:08:43;;;;;;;6.50;1.80;;;8.00;99.90;;;;;;5053485;28;20029;-70
2023/01/12 08:11:10;;;;;;;5.50;1.63;;;8.10;99.90;;;;;;5054212;28;20031;-70
2023/01/12 08:13:37;;;;;;;5.05;1.60;;;8.20;99.90;;;;;;5054566;28;20021;-69
2023/01/12 08:16:18;;;;;;;3.63;1.40;;;8.20;99.90;;;;;;5053170;28;20040;-70
2023/01/12 08:18:53;;;;;;;6.22;1.50;;;8.30;99.90;;;;;;5054646;28;20033;-70
2023/01/12 08:21:22;;;;;;;6.05;1.38;;;8.40;99.90;;;;;;5037386;28;20459;-69
2023/01/12 08:23:52;;;;;;;4.40;1.73;;;8.40;99.90;;;;;;5036607;28;20044;-70
2023/01/12 08:26:23;;;;;;;3.95;1.25;;;8.50;99.90;;;;;;5053648;28;20029;-69
2023/01/12 08:28:57;;;;;;;4.22;1.35;;;8.60;99.90;;;;;;5046557;28;20063;-69
2023/01/12 08:31:24;;;;;;;7.18;2.22;;;8.70;99.10;;;;;;5033816;28;20113;-70
2023/01/12 08:33:52;;;;;;;4.72;1.30;;;8.70;98.70;;;;;;5034380;28;20029;-70
2023/01/12 08:36:18;;;;;;;4.13;1.35;;;8.80;98.20;;;;;;5034002;28;20033;-70
2023/01/12 08:38:44;;;;;;;3.20;0.90;;;8.80;98.10;;;;;;5034243;28;20534;-70
2023/01/12 08:44:03;;;;;;;6.00;1.60;;;8.90;97.00;;;;;;5041480;28;20028;-69
2023/01/12 08:46:36;;;;;;;2.83;1.00;;;8.90;96.80;;;;;;5053761;28;20025;-70
2023/01/12 08:49:07;;;;;;;2.47;1.20;;;9.00;96.40;;;;;;5054061;28;20422;-68
2023/01/12 08:51:33;;;;;;;5.47;1.67;;;9.00;95.80;;;;;;5053655;28;20484;-69
2023/01/12 08:54:00;;;;;;;8.80;1.67;;;9.00;95.90;;;;;;5053430;28;20470;-70
2023/01/12 08:56:25;;;;;;;5.07;1.30;;;9.00;95.40;;;;;;5053145;28;20037;-69
2023/01/12 08:58:51;;;;;;;4.15;1.42;;;9.00;95.00;;;;;;5053281;28;20033;-69
2023/01/12 09:01:18;;;;;;;6.35;1.65;;;9.10;94.30;;;;;;5053172;28;20156;-69
2023/01/12 09:03:44;;;;;;;5.43;1.30;;;9.10;94.10;;;;;;5053457;28;20053;-69
2023/01/12 09:06:16;;;;;;;6.70;1.33;;;9.10;93.90;;;;;;5053166;28;20040;-72
2023/01/12 09:08:42;;;;;;;;;;;9.10;93.50;;;;;;5053924;28;20086;-70
2023/01/12 09:11:08;;;;;;;7.82;1.25;;;9.10;93.60;;;;;;5053410;28;20361;-70
2023/01/12 09:13:34;;;;;;;5.57;1.30;;;9.20;93.00;;;;;;5052478;28;20021;-69
2023/01/12 09:16:06;;;;;;;2.80;1.10;;;9.20;92.60;;;;;;5052845;28;20382;-70
2023/01/12 09:18:31;;;;;;;4.63;1.27;;;9.20;92.60;;;;;;5052694;28;20523;-70
2023/01/12 09:21:03;;;;;;;4.78;1.10;;;9.30;92.30;;;;;;5053138;28;20025;-68
2023/01/12 09:23:28;;;;;;;7.93;1.45;;;9.30;91.70;;;;;;5052664;28;20025;-69
2023/01/12 09:25:54;;;;;;;6.65;1.45;;;9.30;91.60;;;;;;5053013;28;20033;-68
2023/01/12 09:28:20;;;;;;;6.97;1.80;;;9.40;91.60;;;;;;5052879;28;20413;-69
2023/01/12 09:30:45;;;;;;;7.28;1.15;;;9.40;91.30;;;;;;5051579;28;20025;-71
2023/01/12 09:33:11;;;;;;;4.90;1.42;;;9.40;91.40;;;;;;5052737;28;20398;-69
2023/01/12 09:35:37;;;;;;;9.38;1.73;;;9.40;91.00;;;;;;5052680;28;20448;-69
2023/01/12 09:38:03;;;;;;;6.72;1.27;;;9.50;90.60;;;;;;5052725;28;20449;-69
2023/01/12 09:40:29;;;;;;;8.30;1.30;;;9.50;90.00;;;;;;5050683;28;20087;-70
2023/01/12 09:48:24;;;;;;;5.97;1.30;;;9.70;87.20;;;;;;5052404;28;20044;-69
2023/01/12 09:50:53;;;;;;;8.05;1.58;;;9.80;85.40;;;;;;5052584;28;20100;-69
2023/01/12 09:53:21;;;;;;;7.68;1.52;;;9.90;85.40;;;;;;5052287;28;20024;-69
2023/01/12 09:56:03;;;;;;;7.78;1.40;;;9.90;84.60;;;;;;5052981;28;20047;-69
2023/01/12 09:58:43;;;;;;;5.72;1.23;;;10.00;83.60;;;;;;5052208;28;20037;-68
2023/01/12 10:01:12;;;;;;;5.82;1.00;;;10.20;81.30;;;;;;5052813;28;20025;-70
2023/01/12 10:03:40;;;;;;;5.70;1.08;;;10.30;80.50;;;;;;5051947;28;20029;-69
2023/01/12 10:06:13;;;;;;;8.77;1.40;;;10.40;79.80;;;;;;5052713;28;20033;-69
2023/01/12 10:08:48;;;;;;;6.60;1.40;;;10.50;77.70;;;;;;5052140;28;20025;-71
2023/01/12 10:11:56;;;;;;;3.72;1.20;;;10.70;77.70;;;;;;5052437;28;20192;-70
2023/01/12 10:14:33;;;;;;;4.32;1.40;;;10.90;76.20;;;;;;5052301;28;20056;-68
2023/01/12 10:17:17;;;;;;;5.00;1.00;;;11.10;75.60;;;;;;5052248;28;20366;-69
2023/01/12 10:19:48;;;;;;;3.42;0.93;;;11.30;72.70;;;;;;5052752;28;20359;-69
2023/01/12 10:22:35;;;;;;;;;;;11.50;72.90;;;;;;5052946;28;20108;-68
2023/01/12 10:25:20;;;;;;;6.13;1.52;;;11.50;71.70;;;;;;5052612;28;20324;-70
2023/01/12 10:27:48;;;;;;;5.45;1.20;;;11.70;70.30;;;;;;5052716;28;20163;-68
2023/01/12 10:30:30;;;;;;;6.65;1.80;;;11.80;68.90;;;;;;5052480;28;20029;-69
2023/01/12 10:32:57;;;;;;;4.03;1.38;;;11.90;68.90;;;;;;5056795;28;20031;-69
2023/01/12 10:35:24;;;;;;;9.23;1.80;;;12.00;67.90;;;;;;5056058;28;20037;-70
2023/01/12 10:37:55;;;;;;;3.58;1.10;;;12.00;67.00;;;;;;5056024;28;20036;-69
2023/01/12 10:40:22;;;;;;;7.03;1.50;;;12.00;66.60;;;;;;5056071;28;20067;-69
2023/01/12 10:45:42;;;;;;;7.25;1.40;;;12.20;66.20;;;;;;5056747;28;20393;-68
2023/01/12 10:48:20;;;;;;;3.88;1.48;;;12.20;65.50;;;;;;5056409;28;20063;-69
2023/01/12 10:50:57;;;;;;;4.47;1.88;;;12.30;64.40;;;;;;5055887;28;20083;-70
2023/01/12 10:53:43;;;;;;;6.78;1.58;;;12.40;64.40;;;;;;5056179;28;20439;-68
2023/01/12 10:56:21;;;;;;;6.88;1.40;;;12.40;64.20;;;;;;5056205;28;20029;-69
2023/01/12 10:59:14;;;;;;;4.53;1.20;;;12.50;63.40;;;;;;5056329;28;20036;-68
2023/01/12 11:01:43;;;;;;;4.88;1.38;;;12.50;62.30;;;;;;5055746;28;20052;-69
2023/01/12 11:04:18;;;;;;;7.38;1.30;;;12.50;61.90;;;;;;5056099;28;20036;-69
2023/01/12 11:06:54;;;;;;;4.47;1.38;;;12.50;62.00;;;;;;5055522;28;20039;-69
2023/01/12 11:09:27;;;;;;;5.40;1.35;;;12.50;61.90;;;;;;5055758;28;20047;-70
2023/01/12 11:11:55;;;;;;;4.65;1.15;;;12.40;60.90;;;;;;5056078;28;20033;-69
2023/01/12 11:14:31;;;;;;;6.18;1.30;;;12.30;60.90;;;;;;5055507;28;20532;-69
2023/01/12 11:17:31;;;;;;;6.55;1.30;;;12.30;60.90;;;;;;5055284;28;20028;-70
2023/01/12 11:19:59;;;;;;;5.00;1.40;;;12.20;60.80;;;;;;5046982;28;20157;-68
2023/01/12 11:22:35;;;;;;;3.88;1.30;;;12.20;60.80;;;;;;5054108;28;20373;-69
2023/01/12 11:25:08;;;;;;;4.63;1.60;;;12.10;60.70;;;;;;5055610;28;20029;-69
2023/01/12 11:27:39;;;;;;;3.85;1.30;;;12.10;60.60;;;;;;5055295;28;20491;-68
2023/01/12 11:30:31;;;;;;;4.15;1.48;;;12.20;61.00;;;;;;5055625;28;20032;-68
2023/01/12 11:32:58;;;;;;;;;;;12.20;60.50;;;;;;5055654;28;20057;-69
2023/01/12 11:35:36;;;;;;;4.85;1.48;;;12.20;60.70;;;;;;5055027;28;19905;-69
2023/01/12 11:38:12;;;;;;;5.72;1.17;;;12.20;60.10;;;;;;5055314;28;20124;-68
2023/01/12 11:40:40;;;;;;;8.23;1.50;;;12.10;60.10;;;;;;5054991;28;20040;-68
2023/01/12 11:46:22;;;;;;;6.60;1.42;;;12.20;60.20;;;;;;5055070;28;20477;-70
2023/01/12 11:49:04;;;;;;;3.95;1.30;;;12.20;59.00;;;;;;5055314;28;20039;-69
2023/01/12 11:51:29;;;;;;;5.82;1.20;;;12.20;58.00;;;;;;5054767;28;20108;-69
2023/01/12 11:53:56;;;;;;;5.72;1.10;;;12.30;58.00;;;;;;5055248;28;20052;-69
2023/01/12 11:56:28;;;;;;;6.72;1.25;;;12.30;58.40;;;;;;5054651;28;20029;-76
2023/01/12 11:59:12;;;;;;;2.08;0.90;;;12.30;57.90;;;;;;5054953;28;20033;-69
2023/01/12 12:01:44;;;;;;;5.78;1.25;;;12.40;57.20;;;;;;5054320;28;20512;-69
2023/01/12 12:04:44;;;;;;;6.63;1.50;;;12.50;57.70;;;;;;5054918;28;20073;-69
2023/01/12 12:07:22;;;;;;;6.13;1.42;;;12.60;55.90;;;;;;5054915;28;20112;-70
2023/01/12 12:09:54;;;;;;;4.63;1.20;;;12.60;56.10;;;;;;5054511;28;20052;-69
2023/01/12 12:12:27;;;;;;;5.03;1.30;;;12.60;55.80;;;;;;5054707;28;20056;-68
2023/01/12 12:15:14;;;;;;;3.33;1.35;;;12.60;56.10;;;;;;5054738;28;20029;-69
2023/01/12 12:17:51;;;;;;;10.15;1.30;;;12.60;56.30;;;;;;5053839;28;20485;-69
2023/01/12 12:20:27;;;;;;;7.28;1.50;;;12.60;56.10;;;;;;5054576;28;20462;-69
2023/01/12 12:23:25;;;;;;;3.38;1.10;;;12.70;55.80;;;;;;5054455;28;20029;-69
2023/01/12 12:26:12;;;;;;;3.60;1.05;;;12.70;55.70;;;;;;5054598;28;20028;-69
2023/01/12 12:29:05;;;;;;;5.57;1.40;;;12.60;54.80;;;;;;5054046;28;20021;-68
2023/01/12 12:31:34;;;;;;;5.30;1.35;;;12.60;55.20;;;;;;5052588;28;20032;-69
2023/01/12 12:34:30;;;;;;;6.43;1.13;;;12.60;54.60;;;;;;5054015;28;20485;-69
2023/01/12 12:37:12;;;;;;;4.43;1.10;;;12.60;55.30;;;;;;5052823;28;20060;-68
2023/01/12 12:39:56;;;;;;;8.63;1.90;;;12.60;55.40;;;;;;5053773;28;20080;-70
2023/01/12 12:45:56;;;;;;;2.25;1.00;;;12.80;54.70;;;;;;5053668;28;20031;-69
2023/01/12 12:48:49;;;;;;;3.40;1.30;;;12.80;54.20;;;;;;5053812;28;20059;-68
2023/01/12 12:51:15;;;;;;;4.45;1.35;;;12.80;54.20;;;;;;5053975;28;20489;-68
2023/01/12 12:53:44;;;;;;;7.50;1.60;;;12.80;53.30;;;;;;5051340;28;20029;-68
2023/01/12 12:56:16;;;;;;;4.75;1.83;;;12.80;53.40;;;;;;5053780;28;20029;-68
2023/01/12 12:58:45;;;;;;;5.65;1.38;;;12.80;52.70;;;;;;5053419;28;20421;-69
2023/01/12 13:01:23;;;;;;;2.25;1.10;;;12.80;53.10;;;;;;5052332;28;20214;-69
2023/01/12 13:03:50;;;;;;;6.07;1.17;;;12.90;53.40;;;;;;5052998;28;20458;-69
2023/01/12 13:06:16;;;;;;;4.88;1.08;;;12.90;53.70;;;;;;5053880;28;20029;-68
2023/01/12 13:08:42;;;;;;;3.05;0.90;;;12.90;53.00;;;;;;5052951;28;20029;-69
2023/01/12 13:11:09;;;;;;;3.90;1.40;;;12.80;53.30;;;;;;5053498;28;20060;-68
2023/01/12 13:13:37;;;;;;;3.47;1.27;;;12.80;53.60;;;;;;5052711;28;20069;-67
2023/01/12 13:16:28;;;;;;;6.93;1.40;;;12.80;53.60;;;;;;5052162;28;20377;-69
2023/01/12 13:18:53;;;;;;;5.43;1.27;;;12.80;53.80;;;;;;5049955;28;20148;-69
2023/01/12 13:21:25;;;;;;;6.53;1.52;;;12.80;52.10;;;;;;5053464;28;20028;-70
2023/01/12 13:23:52;;;;;;;3.45;1.00;;;12.80;52.00;;;;;;5052904;28;20032;-68
2023/01/12 13:26:33;;;;;;;4.15;0.90;;;12.70;52.20;;;;;;5053550;28;20167;-69
2023/01/12 13:29:27;;;;;;;3.60;1.23;;;12.50;52.60;;;;;;5053296;28;20025;-69
2023/01/12 13:32:21;;;;;;;3.83;1.35;;;12.50;52.60;;;;;;5052643;28;20025;-69
2023/01/12 13:34:49;;;;;;;2.38;1.08;;;12.50;52.50;;;;;;5052806;28;20021;-69
2023/01/12 13:37:17;;;;;;;3.53;0.98;;;12.50;52.40;;;;;;5053140;28;20099;-69
2023/01/12 13:39:56;;;;;;;2.63;0.90;;;12.40;52.70;;;;;;5052507;28;20049;-69
2023/01/12 13:45:16;;;;;;;2.65;0.90;;;12.30;52.80;;;;;;5053225;28;20389;-68
2023/01/12 13:47:44;;;;;;;5.47;1.30;;;12.20;53.10;;;;;;5052405;28;20478;-69
2023/01/12 13:50:17;;;;;;;2.17;0.80;;;12.20;53.30;;;;;;5053065;28;20111;-69
2023/01/12 13:52:43;;;;;;;3.70;1.33;;;12.20;53.20;;;;;;5052568;28;20033;-69
2023/01/12 13:55:24;;;;;;;3.25;1.13;;;12.20;52.60;;;;;;5052887;28;20107;-69
2023/01/12 13:58:00;;;;;;;2.60;1.10;;;12.20;52.70;;;;;;5052513;28;20044;-69